Brisben, New York
Current Conditions -  °F | °C
As of 12:40 AM on Thursday 27 Nov 2014 (Local Time) from KBGM Reporting Station
Light Snow Light Snow  
Wind Chill: 31°   Ceiling: 800
Heat Index: 37°   Visibility: 7mi
Dew Point: 25°   Wind: 8mph
Humidity: 62%   Direction: 320°NW
Pressure: 29.88"   Gusts: NA
Location:  42.4446°N, 75.6311°W
Report Text: KBGM 270540Z AUTO 32007KT 7SM -SN BKN008 BKN014 OVC100 03/M04 A2988 RMK AO2 P0000 T00281039 $
Loading
Personal Weather Stations






























Interactive Weather Map New forecast layout! Learn more

10-Day Weather Forecast

Advertisements
Track Severe Weather on mobile